createdAt,value
2022-12-04T00:01:16.867Z,94695.38
2022-12-04T00:03:44.701Z,94695.88
2022-12-04T00:06:14.598Z,94698.69
2022-12-04T00:08:43.215Z,94678.88
2022-12-04T00:11:14.222Z,94721.75
2022-12-04T00:13:42.796Z,94742.91
2022-12-04T00:16:13.454Z,94748.84
2022-12-04T00:18:41.378Z,94748.03
2022-12-04T00:21:11.356Z,94739.22
2022-12-04T00:23:40.141Z,94744.59
2022-12-04T00:26:10.201Z,94740.19
2022-12-04T00:28:40.216Z,94742.22
2022-12-04T00:31:10.055Z,94734.19
2022-12-04T00:33:38.297Z,94738.16
2022-12-04T00:36:08.372Z,94731.28
2022-12-04T00:38:36.534Z,94742.94
2022-12-04T00:41:04.954Z,94735.41
2022-12-04T00:43:33.143Z,94747.38
2022-12-04T00:46:02.337Z,94745.28
2022-12-04T00:48:30.420Z,94755.84
2022-12-04T00:51:03.167Z,94743.59
2022-12-04T00:53:30.992Z,94743.59
2022-12-04T00:55:58.892Z,94743.88
2022-12-04T00:58:26.683Z,94737.63
2022-12-04T01:01:05.131Z,94728.91
2022-12-04T01:03:33.185Z,94726.06
2022-12-04T01:06:01.370Z,94723.22
2022-12-04T01:08:29.429Z,94731.28
2022-12-04T01:10:57.381Z,94719.41
2022-12-04T01:13:26.770Z,94729.38
2022-12-04T01:15:54.602Z,94719.69
2022-12-04T01:18:23.809Z,94731.84
2022-12-04T01:20:53.005Z,94740.56
2022-12-04T01:23:21.214Z,94739.38
2022-12-04T01:25:53.529Z,94735.81
2022-12-04T01:28:21.691Z,94734.75
2022-12-04T01:31:01.842Z,94738.34
2022-12-04T01:33:32.066Z,94736.25
2022-12-04T01:36:01.649Z,94735.81
2022-12-04T01:38:29.984Z,94734.00
2022-12-04T01:40:58.411Z,94740.50
2022-12-04T01:43:27.232Z,94738.16
2022-12-04T01:45:56.707Z,94738.03
2022-12-04T01:48:30.759Z,94715.75
2022-12-04T01:51:05.869Z,94709.50
2022-12-04T01:53:36.223Z,94709.75
2022-12-04T01:56:05.413Z,94710.28
2022-12-04T01:58:37.634Z,94698.81
2022-12-04T02:01:09.204Z,94704.81
2022-12-04T02:03:38.691Z,94709.44
2022-12-04T02:06:08.279Z,94714.63
2022-12-04T02:08:37.027Z,94713.44
2022-12-04T02:11:15.042Z,94706.34
2022-12-04T02:13:51.465Z,94715.38
2022-12-04T02:16:25.876Z,94709.25
2022-12-04T02:19:00.568Z,94710.50
2022-12-04T02:21:37.066Z,94703.41
2022-12-04T02:24:22.926Z,94699.00
2022-12-04T02:26:55.295Z,94696.75
2022-12-04T02:29:38.043Z,94688.38
2022-12-04T02:32:13.966Z,94679.88
2022-12-04T02:34:45.695Z,94679.22
2022-12-04T02:37:19.616Z,94678.59
2022-12-04T02:39:53.397Z,94680.78
2022-12-04T02:42:27.761Z,94662.13
2022-12-04T02:45:01.328Z,94665.94
2022-12-04T02:47:29.306Z,94654.72
2022-12-04T02:50:01.194Z,94677.50
2022-12-04T02:52:34.282Z,94667.81
2022-12-04T02:55:08.804Z,94663.09
2022-12-04T02:57:41.432Z,94665.13
2022-12-04T03:00:12.370Z,94658.16
2022-12-04T03:02:44.560Z,94654.84
2022-12-04T03:05:18.194Z,94654.56
2022-12-04T03:07:50.253Z,94664.31
2022-12-04T03:10:24.219Z,94662.34
2022-12-04T03:12:55.928Z,94664.75
2022-12-04T03:15:28.924Z,94661.25
2022-12-04T03:18:01.154Z,94667.47
2022-12-04T03:20:33.115Z,94667.81
2022-12-04T03:23:05.129Z,94671.16
2022-12-04T03:25:37.023Z,94648.56
2022-12-04T03:28:08.514Z,94654.59
2022-12-04T03:30:44.249Z,94658.72
2022-12-04T03:33:16.465Z,94658.59
2022-12-04T03:35:50.605Z,94662.38
2022-12-04T03:38:32.209Z,94658.94
2022-12-04T03:41:04.363Z,94663.03
2022-12-04T03:43:38.327Z,94670.50
2022-12-04T03:46:13.653Z,94661.00
2022-12-04T03:48:45.046Z,94664.25
2022-12-04T03:51:18.798Z,94655.63
2022-12-04T03:53:52.137Z,94653.75
2022-12-04T03:56:23.493Z,94646.28
2022-12-04T03:58:56.768Z,94639.00
2022-12-04T04:01:33.913Z,94638.38
2022-12-04T04:04:07.548Z,94641.41
2022-12-04T04:06:40.222Z,94648.84
2022-12-04T04:09:14.434Z,94633.63
2022-12-04T04:11:48.651Z,94632.56
2022-12-04T04:14:40.354Z,94627.00
2022-12-04T04:17:33.542Z,94629.06
2022-12-04T04:20:25.691Z,94638.56
2022-12-04T04:23:12.961Z,94647.25
2022-12-04T04:25:43.580Z,94636.00
2022-12-04T04:28:29.863Z,94645.03
2022-12-04T04:31:05.484Z,94643.06
2022-12-04T04:33:37.071Z,94644.53
2022-12-04T04:36:13.331Z,94639.78
2022-12-04T04:38:46.887Z,94637.72
2022-12-04T04:41:20.558Z,94641.31
2022-12-04T04:43:55.677Z,94627.47
2022-12-04T04:46:29.450Z,94632.19
2022-12-04T04:49:02.207Z,94634.44
2022-12-04T04:51:32.207Z,94633.91
2022-12-04T04:54:04.780Z,94639.03
2022-12-04T04:56:32.735Z,94637.63
2022-12-04T04:59:00.452Z,94636.88
2022-12-04T05:01:29.623Z,94641.69
2022-12-04T05:03:58.757Z,94639.97
2022-12-04T05:06:26.497Z,94635.53
2022-12-04T05:08:54.205Z,94637.00
2022-12-04T05:11:22.010Z,94639.19
2022-12-04T05:13:49.772Z,94638.56
2022-12-04T05:16:18.208Z,94643.78
2022-12-04T05:19:06.635Z,94633.78
2022-12-04T05:21:35.245Z,94631.47
2022-12-04T05:24:03.149Z,94630.16
2022-12-04T05:26:30.891Z,94618.66
2022-12-04T05:28:58.645Z,94632.50
2022-12-04T05:31:26.472Z,94625.22
2022-12-04T05:33:54.307Z,94629.50
2022-12-04T05:36:22.020Z,94629.69
2022-12-04T05:38:51.634Z,94642.63
2022-12-04T05:41:19.362Z,94645.94
2022-12-04T05:43:47.108Z,94633.13
2022-12-04T05:46:14.908Z,94623.63
2022-12-04T05:48:42.674Z,94644.09
2022-12-04T05:51:12.082Z,94632.72
2022-12-04T05:53:40.154Z,94634.63
2022-12-04T05:56:09.824Z,94631.63
2022-12-04T05:58:38.959Z,94626.09
2022-12-04T06:01:14.128Z,94631.59
2022-12-04T06:03:41.921Z,94616.91
2022-12-04T06:06:17.639Z,94627.34
2022-12-04T06:08:49.695Z,94616.59
2022-12-04T06:11:21.335Z,94611.84
2022-12-04T06:13:49.280Z,94597.44
2022-12-04T06:16:18.958Z,94594.75
2022-12-04T06:18:50.543Z,94608.53
2022-12-04T06:21:18.932Z,94621.81
2022-12-04T06:23:47.319Z,94620.38
2022-12-04T06:26:15.295Z,94640.19
2022-12-04T06:28:44.439Z,94640.63
2022-12-04T06:31:14.062Z,94638.81
2022-12-04T06:33:42.268Z,94642.00
2022-12-04T06:36:13.138Z,94634.09
2022-12-04T06:38:42.537Z,94642.88
2022-12-04T06:41:11.915Z,94634.53
2022-12-04T06:43:39.958Z,94624.56
2022-12-04T06:46:12.499Z,94628.72
2022-12-04T06:48:41.013Z,94632.50
2022-12-04T06:51:13.341Z,94633.03
2022-12-04T06:53:41.933Z,94624.41
2022-12-04T06:56:14.246Z,94615.59
2022-12-04T06:58:41.984Z,94626.81
2022-12-04T07:01:12.921Z,94619.38
2022-12-04T07:03:44.718Z,94612.75
2022-12-04T07:06:17.633Z,94623.56
2022-12-04T07:08:46.931Z,94635.09
2022-12-04T07:11:16.220Z,94654.72
2022-12-04T07:13:44.356Z,94634.13
2022-12-04T07:16:15.786Z,94627.00
2022-12-04T07:18:43.934Z,94626.38
2022-12-04T07:21:15.965Z,94628.75
2022-12-04T07:23:44.200Z,94624.19
2022-12-04T07:26:14.303Z,94630.00
2022-12-04T07:28:42.767Z,94638.59
2022-12-04T07:31:14.510Z,94633.00
2022-12-04T07:33:43.139Z,94635.47
2022-12-04T07:36:14.149Z,94625.25
2022-12-04T07:38:42.496Z,94628.59
2022-12-04T07:41:12.137Z,94641.44
2022-12-04T07:43:40.236Z,94642.06
2022-12-04T07:46:10.058Z,94642.53
2022-12-04T07:48:39.240Z,94668.63
2022-12-04T07:51:09.149Z,94660.53
2022-12-04T07:53:37.710Z,94643.78
2022-12-04T07:56:06.923Z,94645.81
2022-12-04T07:58:35.101Z,94648.84
2022-12-04T08:01:07.742Z,94652.47
2022-12-04T08:03:36.372Z,94644.75
2022-12-04T08:06:08.021Z,94638.84
2022-12-04T08:08:37.025Z,94639.66
2022-12-04T08:11:07.525Z,94636.94
2022-12-04T08:13:35.789Z,94637.94
2022-12-04T08:16:03.877Z,94649.31
2022-12-04T08:18:31.867Z,94643.31
2022-12-04T08:21:06.648Z,94646.97
2022-12-04T08:23:34.929Z,94663.56
2022-12-04T08:26:03.666Z,94655.00
2022-12-04T08:28:32.588Z,94660.59
2022-12-04T08:31:04.719Z,94646.34
2022-12-04T08:33:33.082Z,94641.66
2022-12-04T08:36:01.601Z,94646.31
2022-12-04T08:38:30.801Z,94657.91
2022-12-04T08:41:01.121Z,94690.25
2022-12-04T08:43:29.263Z,94675.22
2022-12-04T08:45:58.445Z,94676.72
2022-12-04T08:48:27.403Z,94674.72
2022-12-04T08:50:55.877Z,94671.25
2022-12-04T08:53:24.092Z,94665.75
2022-12-04T08:55:53.995Z,94669.91
2022-12-04T08:58:21.927Z,94662.00
2022-12-04T09:00:50.435Z,94671.75
2022-12-04T09:03:21.059Z,94664.00
2022-12-04T09:05:51.348Z,94654.03
2022-12-04T09:08:19.163Z,94638.88
2022-12-04T09:10:47.070Z,94632.72
2022-12-04T09:13:16.304Z,94654.09
2022-12-04T09:15:44.258Z,94672.66
2022-12-04T09:18:12.209Z,94673.28
2022-12-04T09:20:40.510Z,94658.41
2022-12-04T09:23:08.914Z,94676.19
2022-12-04T09:25:37.811Z,94687.13
2022-12-04T09:28:05.880Z,94681.00
2022-12-04T09:30:35.020Z,94651.88
2022-12-04T09:33:03.897Z,94651.72
2022-12-04T09:35:31.684Z,94660.56
2022-12-04T09:37:59.476Z,94667.94
2022-12-04T09:40:35.511Z,94638.44
2022-12-04T09:43:12.372Z,94623.13
2022-12-04T09:45:47.711Z,94612.84
2022-12-04T09:48:19.295Z,94625.69
2022-12-04T09:50:49.139Z,94637.22
2022-12-04T09:53:23.316Z,94631.09
2022-12-04T09:55:56.174Z,94655.19
2022-12-04T09:58:40.312Z,94667.38
2022-12-04T10:01:21.680Z,94648.38
2022-12-04T10:03:50.011Z,94630.31
2022-12-04T10:06:22.460Z,94607.97
2022-12-04T10:08:56.956Z,94612.31
2022-12-04T10:11:32.868Z,94610.94
2022-12-04T10:14:18.043Z,94605.75
2022-12-04T10:17:01.636Z,94618.25
2022-12-04T10:19:34.524Z,94582.50
2022-12-04T10:22:13.694Z,94580.81
2022-12-04T10:24:45.201Z,94595.41
2022-12-04T10:27:20.586Z,94593.19
2022-12-04T10:29:53.783Z,94583.47
2022-12-04T10:32:26.582Z,94585.38
2022-12-04T10:34:58.064Z,94600.41
2022-12-04T10:37:27.250Z,94591.44
2022-12-04T10:39:59.250Z,94574.06
2022-12-04T10:42:33.880Z,94579.38
2022-12-04T10:45:01.744Z,94579.91
2022-12-04T10:47:31.736Z,94566.50
2022-12-04T10:50:01.736Z,94556.59
2022-12-04T10:52:29.492Z,94558.81
2022-12-04T10:54:59.913Z,94541.59
2022-12-04T10:57:38.046Z,94537.16
2022-12-04T11:00:25.163Z,94535.06
2022-12-04T11:02:56.697Z,94542.78
2022-12-04T11:05:28.061Z,94525.88
2022-12-04T11:07:57.692Z,94530.81
2022-12-04T11:10:31.937Z,94536.00
2022-12-04T11:13:03.109Z,94548.44
2022-12-04T11:15:31.508Z,94534.69
2022-12-04T11:18:10.490Z,94533.25
2022-12-04T11:20:40.757Z,94560.47
2022-12-04T11:23:17.054Z,94569.00
2022-12-04T11:25:48.907Z,94559.34
2022-12-04T11:28:33.804Z,94546.53
2022-12-04T11:31:08.138Z,94546.53
2022-12-04T11:33:44.214Z,94553.78
2022-12-04T11:36:25.749Z,94548.09
2022-12-04T11:39:03.602Z,94545.56
2022-12-04T11:41:33.285Z,94533.41
2022-12-04T11:44:01.243Z,94528.03
2022-12-04T11:46:31.565Z,94525.97
2022-12-04T11:49:02.992Z,94526.31
2022-12-04T11:51:44.385Z,94522.03
2022-12-04T11:54:27.632Z,94522.19
2022-12-04T11:57:06.850Z,94526.31
2022-12-04T11:59:48.610Z,94510.47
2022-12-04T12:02:33.973Z,94505.75
2022-12-04T12:05:50.811Z,94495.13
2022-12-04T12:08:32.931Z,94510.91
2022-12-04T12:11:10.227Z,94500.63
2022-12-04T12:13:50.628Z,94503.31
2022-12-04T12:16:28.645Z,94485.00
2022-12-04T12:19:27.983Z,94490.81
2022-12-04T12:22:05.601Z,94491.63
2022-12-04T12:24:46.864Z,94492.72
2022-12-04T12:27:33.192Z,94481.16
2022-12-04T12:30:05.683Z,94490.50
2022-12-04T12:32:45.751Z,94492.06
2022-12-04T12:35:28.415Z,94486.38
2022-12-04T12:38:04.378Z,94485.13
2022-12-04T12:40:37.864Z,94493.03
2022-12-04T12:43:09.109Z,94497.75
2022-12-04T12:45:45.146Z,94484.63
2022-12-04T12:48:26.470Z,94487.81
2022-12-04T12:51:22.095Z,94477.53
2022-12-04T12:53:53.554Z,94479.59
2022-12-04T12:56:32.211Z,94468.81
2022-12-04T12:59:05.320Z,94472.59
2022-12-04T13:01:46.218Z,94468.91
2022-12-04T13:04:20.630Z,94465.81
2022-12-04T13:06:54.059Z,94461.72
2022-12-04T13:09:26.729Z,94465.81
2022-12-04T13:12:01.184Z,94456.31
2022-12-04T13:14:28.957Z,94435.75
2022-12-04T13:17:00.670Z,94448.19
2022-12-04T13:19:33.315Z,94456.72
2022-12-04T13:22:09.867Z,94469.38
2022-12-04T13:24:59.318Z,94460.38
2022-12-04T13:27:37.066Z,94460.19
2022-12-04T13:30:14.437Z,94477.34
2022-12-04T13:33:19.564Z,94474.97
2022-12-04T13:36:04.714Z,94483.63
2022-12-04T13:38:43.803Z,94481.25
2022-12-04T13:41:19.126Z,94472.41
2022-12-04T13:43:49.233Z,94463.53
2022-12-04T13:46:29.673Z,94463.53
2022-12-04T13:49:09.535Z,94466.84
2022-12-04T13:51:39.792Z,94466.31
2022-12-04T13:54:26.025Z,94476.81
2022-12-04T13:56:57.778Z,94468.25
2022-12-04T13:59:36.483Z,94464.97
2022-12-04T14:02:21.896Z,94456.75
2022-12-04T14:04:56.261Z,94438.75
2022-12-04T14:07:28.555Z,94447.56
2022-12-04T14:09:59.396Z,94453.72
2022-12-04T14:12:33.814Z,94446.50
2022-12-04T14:15:04.231Z,94442.25
2022-12-04T14:17:34.828Z,94468.28
2022-12-04T14:20:08.018Z,94479.69
2022-12-04T14:22:44.347Z,94480.94
2022-12-04T14:25:35.705Z,94483.72
2022-12-04T14:28:29.821Z,94481.31
2022-12-04T14:31:06.310Z,94487.00
2022-12-04T14:33:39.171Z,94473.72
2022-12-04T14:36:11.698Z,94481.31
2022-12-04T14:38:40.321Z,94465.66
2022-12-04T14:41:08.655Z,94472.78
2022-12-04T14:43:41.222Z,94459.66
2022-12-04T14:46:16.807Z,94468.19
2022-12-04T14:48:53.890Z,94473.88
2022-12-04T14:51:26.017Z,94451.09
2022-12-04T14:54:04.051Z,94456.19
2022-12-04T14:56:45.250Z,94475.31
2022-12-04T14:59:18.808Z,94466.84
2022-12-04T15:01:48.324Z,94466.22
2022-12-04T15:04:23.944Z,94462.56
2022-12-04T15:06:58.320Z,94480.75
2022-12-04T15:09:46.540Z,94496.25
2022-12-04T15:12:37.008Z,94499.56
2022-12-04T15:15:17.338Z,94500.03
2022-12-04T15:17:45.431Z,94486.28
2022-12-04T15:20:18.133Z,94504.81
2022-12-04T15:22:46.714Z,94489.19
2022-12-04T15:25:21.765Z,94492.50
2022-12-04T15:27:52.166Z,94507.22
2022-12-04T15:30:24.386Z,94505.94
2022-12-04T15:32:54.451Z,94512.91
2022-12-04T15:35:26.694Z,94505.94
2022-12-04T15:37:55.167Z,94510.69
2022-12-04T15:40:27.539Z,94519.84
2022-12-04T15:42:56.201Z,94509.28
2022-12-04T15:45:34.300Z,94518.41
2022-12-04T15:48:02.544Z,94514.75
2022-12-04T15:50:31.891Z,94519.81
2022-12-04T15:53:04.198Z,94530.25
2022-12-04T15:55:34.217Z,94522.84
2022-12-04T15:58:04.581Z,94521.41
2022-12-04T16:00:39.109Z,94516.81
2022-12-04T16:03:24.228Z,94535.94
2022-12-04T16:06:03.633Z,94536.72
2022-12-04T16:08:33.109Z,94538.91
2022-12-04T16:11:02.927Z,94531.50
2022-12-04T16:13:36.190Z,94533.56
2022-12-04T16:16:08.780Z,94537.97
2022-12-04T16:18:36.690Z,94534.84
2022-12-04T16:21:04.831Z,94530.75
2022-12-04T16:23:33.536Z,94526.97
2022-12-04T16:26:01.355Z,94532.63
2022-12-04T16:28:29.186Z,94545.09
2022-12-04T16:30:57.091Z,94546.53
2022-12-04T16:33:26.301Z,94544.16
2022-12-04T16:35:54.414Z,94550.47
2022-12-04T16:38:25.519Z,94553.97
2022-12-04T16:40:56.155Z,94558.69
2022-12-04T16:43:24.341Z,94551.56
2022-12-04T16:45:54.112Z,94548.25
2022-12-04T16:48:22.211Z,94540.38
2022-12-04T16:50:51.382Z,94559.03
2022-12-04T16:53:21.548Z,94548.91
2022-12-04T16:55:50.933Z,94554.09
2022-12-04T16:58:19.591Z,94548.41
2022-12-04T17:00:52.920Z,94548.59
2022-12-04T17:03:30.182Z,94555.56
2022-12-04T17:06:01.525Z,94546.69
2022-12-04T17:08:29.654Z,94539.41
2022-12-04T17:10:57.498Z,94543.22
2022-12-04T17:13:25.350Z,94549.53
2022-12-04T17:15:53.266Z,94550.50
2022-12-04T17:18:21.696Z,94544.34
2022-12-04T17:20:50.377Z,94560.75
2022-12-04T17:23:20.626Z,94556.34
2022-12-04T17:25:48.468Z,94550.19
2022-12-04T17:28:16.397Z,94536.75
2022-12-04T17:30:46.250Z,94560.44
2022-12-04T17:33:15.332Z,94562.16
2022-12-04T17:35:44.038Z,94552.38
2022-12-04T17:38:11.857Z,94559.97
2022-12-04T17:40:41.033Z,94564.25
2022-12-04T17:43:08.916Z,94561.41
2022-12-04T17:45:36.722Z,94566.16
2022-12-04T17:48:04.779Z,94577.53
2022-12-04T17:50:32.719Z,94568.97
2022-12-04T17:53:00.516Z,94565.50
2022-12-04T17:55:28.709Z,94579.88
2022-12-04T17:57:57.886Z,94576.88
2022-12-04T18:00:26.192Z,94578.13
2022-12-04T18:02:54.410Z,94579.56
2022-12-04T18:05:22.533Z,94587.28
2022-12-04T18:07:50.367Z,94576.22
2022-12-04T18:10:18.406Z,94576.41
2022-12-04T18:12:46.216Z,94582.38
2022-12-04T18:15:15.440Z,94577.19
2022-12-04T18:17:43.286Z,94590.16
2022-12-04T18:20:11.839Z,94599.13
2022-12-04T18:22:39.656Z,94603.41
2022-12-04T18:25:09.011Z,94598.66
2022-12-04T18:27:41.663Z,94588.56
2022-12-04T18:30:10.674Z,94589.03
2022-12-04T18:32:39.970Z,94588.41
2022-12-04T18:35:08.435Z,94587.47
2022-12-04T18:37:36.459Z,94584.47
2022-12-04T18:40:06.874Z,94583.97
2022-12-04T18:42:35.205Z,94586.66
2022-12-04T18:45:03.031Z,94585.41
2022-12-04T18:47:30.891Z,94580.19
2022-12-04T18:50:00.513Z,94583.50
2022-12-04T18:52:28.634Z,94593.56
2022-12-04T18:54:56.733Z,94583.66
2022-12-04T18:57:24.610Z,94600.88
2022-12-04T18:59:52.640Z,94594.72
2022-12-04T19:02:20.503Z,94596.63
2022-12-04T19:04:48.318Z,94604.69
2022-12-04T19:07:18.725Z,94614.03
2022-12-04T19:12:34.488Z,94612.75
2022-12-04T19:15:02.567Z,94609.28
2022-12-04T19:17:30.394Z,94604.69
2022-12-04T19:19:59.282Z,94608.94
2022-12-04T19:22:30.407Z,94611.47
2022-12-04T19:24:58.251Z,94603.06
2022-12-04T19:27:27.555Z,94603.38
2022-12-04T19:29:55.792Z,94614.44
2022-12-04T19:32:24.445Z,94621.53
2022-12-04T19:34:52.571Z,94629.59
2022-12-04T19:37:20.668Z,94629.72
2022-12-04T19:39:50.014Z,94618.53
2022-12-04T19:42:17.964Z,94630.88
2022-12-04T19:44:48.927Z,94627.84
2022-12-04T19:47:19.082Z,94639.69
2022-12-04T19:49:47.526Z,94650.91
2022-12-04T19:52:15.805Z,94636.56
2022-12-04T19:54:43.748Z,94645.06
2022-12-04T19:57:15.792Z,94657.38
2022-12-04T19:59:57.560Z,94670.81
2022-12-04T20:02:25.636Z,94664.50
2022-12-04T20:04:53.670Z,94668.44
2022-12-04T20:07:21.629Z,94678.41
2022-12-04T20:09:52.326Z,94661.59
2022-12-04T20:12:22.122Z,94689.44
2022-12-04T20:14:50.084Z,94700.13
2022-12-04T20:17:17.900Z,94690.97
2022-12-04T20:19:45.753Z,94689.59
2022-12-04T20:22:13.547Z,94691.97
2022-12-04T20:24:41.673Z,94695.44
2022-12-04T20:27:09.815Z,94706.84
2022-12-04T20:29:39.013Z,94708.88
2022-12-04T20:32:07.159Z,94711.91
2022-12-04T20:34:38.799Z,94711.53
2022-12-04T20:37:11.290Z,94701.59
2022-12-04T20:39:39.282Z,94703.00
2022-12-04T20:42:07.112Z,94707.59
2022-12-04T20:44:35.006Z,94716.16
2022-12-04T20:47:04.299Z,94716.59
2022-12-04T20:49:32.111Z,94717.75
2022-12-04T20:51:59.913Z,94733.00
2022-12-04T20:54:30.039Z,94735.84
2022-12-04T20:56:57.873Z,94728.59
2022-12-04T20:59:26.152Z,94729.47
2022-12-04T21:01:54.708Z,94730.78
2022-12-04T21:04:24.053Z,94738.97
2022-12-04T21:06:52.064Z,94733.00
2022-12-04T21:09:23.265Z,94730.28
2022-12-04T21:11:53.482Z,94730.13
2022-12-04T21:14:40.532Z,94734.63
2022-12-04T21:17:11.766Z,94722.59
2022-12-04T21:19:40.934Z,94731.53
2022-12-04T21:22:08.821Z,94729.97
2022-12-04T21:24:38.673Z,94734.50
2022-12-04T21:27:08.995Z,94730.16
2022-12-04T21:29:37.184Z,94725.28
2022-12-04T21:32:05.922Z,94731.75
2022-12-04T21:34:34.257Z,94728.31
2022-12-04T21:37:03.480Z,94734.06
2022-12-04T21:39:31.326Z,94727.00
2022-12-04T21:42:16.429Z,94739.06
2022-12-04T21:44:44.225Z,94732.25
2022-12-04T21:47:12.040Z,94739.84
2022-12-04T21:49:39.941Z,94732.38
2022-12-04T21:52:09.099Z,94723.31
2022-12-04T21:54:36.979Z,94721.28
2022-12-04T21:57:04.827Z,94722.09
2022-12-04T21:59:32.611Z,94731.69
2022-12-04T22:02:00.784Z,94741.81
2022-12-04T22:04:28.776Z,94737.75
2022-12-04T22:06:56.567Z,94749.75
2022-12-04T22:09:26.671Z,94774.59
2022-12-04T22:11:54.547Z,94764.28
2022-12-04T22:14:22.351Z,94771.25
2022-12-04T22:16:52.103Z,94761.16
2022-12-04T22:19:20.026Z,94779.34
2022-12-04T22:21:47.901Z,94770.59
2022-12-04T22:24:15.709Z,94782.72
2022-12-04T22:26:44.820Z,94789.19
2022-12-04T22:29:41.875Z,94770.28
2022-12-04T22:32:00.339Z,94778.19
2022-12-04T22:34:28.063Z,94780.34
2022-12-04T22:36:55.889Z,94792.47
2022-12-04T22:39:23.793Z,94795.72
2022-12-04T22:41:52.959Z,94787.03
2022-12-04T22:44:20.760Z,94786.25
2022-12-04T22:46:48.600Z,94794.78
2022-12-04T22:49:16.424Z,94792.66
2022-12-04T22:51:44.155Z,94788.13
2022-12-04T22:54:14.904Z,94793.81
2022-12-04T22:56:43.532Z,94797.31
2022-12-04T22:59:12.742Z,94786.28
2022-12-04T23:01:40.779Z,94783.09
2022-12-04T23:04:08.561Z,94800.13
2022-12-04T23:06:36.719Z,94797.53
2022-12-04T23:09:10.050Z,94791.56
2022-12-04T23:11:38.052Z,94789.00
2022-12-04T23:14:08.661Z,94784.44
2022-12-04T23:16:39.592Z,94775.66
2022-12-04T23:19:09.148Z,94774.00
2022-12-04T23:21:36.964Z,94773.13
2022-12-04T23:24:05.652Z,94784.03
2022-12-04T23:26:36.119Z,94790.31
2022-12-04T23:29:18.026Z,94785.75
2022-12-04T23:31:54.543Z,94791.31
2022-12-04T23:34:22.516Z,94803.59
2022-12-04T23:36:50.353Z,94804.22
2022-12-04T23:39:18.683Z,94811.59
2022-12-04T23:41:46.423Z,94805.97
2022-12-04T23:44:14.207Z,94802.44
2022-12-04T23:46:42.016Z,94803.44
2022-12-04T23:49:11.153Z,94790.38
2022-12-04T23:51:39.547Z,94787.72
2022-12-04T23:54:07.373Z,94792.38
2022-12-04T23:56:35.213Z,94796.38
2022-12-04T23:59:02.969Z,94796.69
